Time;durP1;ratioP1;P1;durP2;ratioP2;P2;SDS_P1;SDS_P2;PMS_P1;PMS_P2;Temp;Humidity;BMP_temperature;BMP_pressure;BME280_temperature;BME280_humidity;BME280_pressure;Samples;Min_cycle;Max_cycle;Signal;HPM_P1;HPM_P2
2023/02/02 00:01:13;;;;;;;5.65;2.47;;;4.10;99.90;;;;;;4952413;29;20229;-66
2023/02/02 00:03:40;;;;;;;6.65;1.58;;;4.10;99.90;;;;;;4951614;29;20770;-66
2023/02/02 00:06:08;;;;;;;2.65;1.85;;;4.10;99.90;;;;;;4951532;29;20240;-65
2023/02/02 00:08:37;;;;;;;3.42;1.60;;;4.10;99.90;;;;;;4950724;29;20283;-65
2023/02/02 00:11:04;;;;;;;1.98;1.55;;;4.10;99.90;;;;;;4951102;29;20303;-65
2023/02/02 00:13:31;;;;;;;3.47;1.55;;;4.10;99.90;;;;;;4951513;29;20317;-65
2023/02/02 00:15:58;;;;;;;3.45;1.50;;;4.10;99.90;;;;;;4950756;29;20232;-66
2023/02/02 00:18:24;;;;;;;2.38;1.42;;;4.10;99.90;;;;;;4951156;29;20208;-65
2023/02/02 00:20:52;;;;;;;3.17;1.92;;;4.10;99.90;;;;;;4950990;29;20600;-66
2023/02/02 00:23:20;;;;;;;5.45;1.55;;;4.10;99.90;;;;;;4951068;29;20307;-65
2023/02/02 00:25:50;;;;;;;2.08;1.55;;;4.00;99.90;;;;;;4950478;29;20228;-65
2023/02/02 00:28:17;;;;;;;13.40;2.40;;;4.10;99.90;;;;;;4950550;29;20605;-64
2023/02/02 00:30:44;;;;;;;3.83;1.50;;;4.10;99.90;;;;;;4950946;29;20220;-65
2023/02/02 00:33:10;;;;;;;4.78;2.10;;;4.10;99.90;;;;;;4950644;29;20779;-66
2023/02/02 00:35:40;;;;;;;3.15;2.05;;;4.10;99.90;;;;;;4951119;29;20235;-66
2023/02/02 00:38:07;;;;;;;3.88;1.73;;;4.10;99.90;;;;;;4949916;29;20215;-66
2023/02/02 00:40:36;;;;;;;2.35;1.83;;;4.10;99.90;;;;;;4950641;29;20208;-66
2023/02/02 00:43:02;;;;;;;3.40;1.77;;;4.10;99.90;;;;;;4950657;29;20664;-65
2023/02/02 00:45:29;;;;;;;1.40;1.20;;;4.10;99.90;;;;;;4950526;29;20225;-65
2023/02/02 00:47:55;;;;;;;3.25;1.60;;;4.10;99.90;;;;;;4950958;29;20267;-66
2023/02/02 00:50:22;;;;;;;3.35;1.42;;;4.20;99.90;;;;;;4949591;29;20224;-66
2023/02/02 00:52:49;;;;;;;4.50;1.83;;;4.20;99.90;;;;;;4950487;29;20205;-65
2023/02/02 00:55:17;;;;;;;1.95;1.38;;;4.20;99.90;;;;;;4950439;29;20221;-66
2023/02/02 00:57:45;;;;;;;3.25;1.35;;;4.30;99.90;;;;;;4950139;28;20209;-65
2023/02/02 01:00:14;;;;;;;2.22;1.75;;;4.30;99.90;;;;;;4949734;29;20584;-65
2023/02/02 01:02:41;;;;;;;4.65;2.03;;;4.40;99.90;;;;;;4949829;29;20200;-66
2023/02/02 01:05:08;;;;;;;4.50;1.77;;;4.40;99.90;;;;;;4950185;29;20235;-64
2023/02/02 01:07:35;;;;;;;6.97;1.77;;;4.50;99.90;;;;;;4950261;29;20215;-66
2023/02/02 01:10:02;;;;;;;2.45;1.40;;;4.50;99.90;;;;;;4949316;29;20232;-65
2023/02/02 01:12:28;;;;;;;7.95;1.73;;;4.50;99.90;;;;;;4950299;29;20822;-65
2023/02/02 01:14:57;;;;;;;2.10;1.20;;;4.50;99.90;;;;;;4949206;29;20212;-65
2023/02/02 01:17:23;;;;;;;1.33;1.23;;;4.50;99.90;;;;;;4950604;29;20208;-66
2023/02/02 01:19:50;;;;;;;3.05;1.40;;;4.50;99.90;;;;;;4949933;29;20211;-66
2023/02/02 01:22:17;;;;;;;1.88;1.30;;;4.50;99.90;;;;;;4949493;29;20212;-65
2023/02/02 01:24:44;;;;;;;1.65;1.25;;;4.50;99.90;;;;;;4950200;29;20208;-66
2023/02/02 01:27:10;;;;;;;1.10;1.00;;;4.50;99.90;;;;;;4949197;29;20228;-66
2023/02/02 01:29:37;;;;;;;5.00;1.52;;;4.50;99.90;;;;;;4949169;29;20223;-66
2023/02/02 01:32:05;;;;;;;1.25;1.15;;;4.50;99.90;;;;;;4949597;29;20205;-65
2023/02/02 01:34:32;;;;;;;2.85;1.45;;;4.40;99.90;;;;;;4950148;29;20871;-66
2023/02/02 01:36:59;;;;;;;1.58;1.30;;;4.50;99.90;;;;;;4949638;29;20247;-66
2023/02/02 01:42:36;;;;;;;1.98;1.35;;;4.40;99.90;;;;;;4974150;28;20220;-92
2023/02/02 01:48:15;;;;;;;2.92;1.23;;;4.40;99.90;;;;;;4863185;29;20214;-92
2023/02/02 01:50:42;;;;;;;1.98;1.23;;;4.40;99.90;;;;;;4926641;23;20267;-66
2023/02/02 01:53:09;;;;;;;1.63;1.15;;;4.40;99.90;;;;;;4949226;29;20204;-66
2023/02/02 01:55:39;;;;;;;2.38;1.50;;;4.40;99.90;;;;;;4949872;29;20889;-66
2023/02/02 01:58:10;;;;;;;1.38;1.20;;;4.30;99.90;;;;;;4949422;29;20207;-66
2023/02/02 02:00:37;;;;;;;3.17;1.60;;;4.40;99.90;;;;;;4949049;29;20204;-66
2023/02/02 02:03:08;;;;;;;2.13;1.48;;;4.40;99.90;;;;;;4948442;29;20215;-66
2023/02/02 02:05:40;;;;;;;1.35;0.90;;;4.40;99.90;;;;;;4949892;29;20249;-65
2023/02/02 02:08:17;;;;;;;1.20;1.10;;;4.40;99.90;;;;;;4949001;29;20200;-65
2023/02/02 02:10:43;;;;;;;2.55;1.40;;;4.40;99.90;;;;;;4949272;29;20228;-65
2023/02/02 02:13:11;;;;;;;4.65;0.93;;;4.50;99.90;;;;;;4949360;29;20208;-65
2023/02/02 02:18:45;;;;;;;4.35;1.17;;;4.50;99.90;;;;;;4916524;29;20698;-66
2023/02/02 02:28:12;;;;;;;2.38;1.70;;;4.60;99.90;;;;;;4949326;29;20195;-66
2023/02/02 02:31:00;;;;;;;2.70;1.35;;;4.70;99.90;;;;;;4949139;29;20230;-66
2023/02/02 02:33:36;;;;;;;2.05;1.10;;;4.70;99.90;;;;;;4948199;29;20204;-66
2023/02/02 02:36:09;;;;;;;2.38;1.40;;;4.70;99.90;;;;;;4948502;29;20242;-66
2023/02/02 02:38:41;;;;;;;2.35;1.00;;;4.70;99.90;;;;;;4949948;29;20208;-66
2023/02/02 02:41:15;;;;;;;1.10;1.00;;;4.70;99.90;;;;;;4951367;29;20197;-66
2023/02/02 02:43:45;;;;;;;1.38;1.08;;;4.70;99.90;;;;;;4951653;29;20230;-65
2023/02/02 02:46:13;;;;;;;2.13;1.60;;;4.70;99.90;;;;;;4951633;29;20236;-65
2023/02/02 02:48:43;;;;;;;1.38;1.27;;;4.70;99.90;;;;;;4951431;29;20204;-65
2023/02/02 02:51:44;;;;;;;2.55;1.50;;;4.70;99.90;;;;;;4951204;29;20232;-65
2023/02/02 02:54:13;;;;;;;2.38;1.40;;;4.80;99.90;;;;;;4950894;29;20211;-65
2023/02/02 02:56:52;;;;;;;1.55;1.40;;;4.80;99.90;;;;;;4951280;29;20236;-66
2023/02/02 02:59:25;;;;;;;1.70;1.00;;;4.80;99.90;;;;;;4951397;29;20207;-65
2023/02/02 03:02:00;;;;;;;1.98;1.23;;;4.80;99.90;;;;;;4952013;29;20217;-66
2023/02/02 03:04:39;;;;;;;2.13;1.15;;;4.80;99.90;;;;;;4952201;29;20219;-67
2023/02/02 03:07:12;;;;;;;1.70;1.00;;;4.80;99.90;;;;;;4951166;29;20220;-66
2023/02/02 03:09:42;;;;;;;3.38;1.38;;;4.80;99.90;;;;;;4951225;29;20217;-66
2023/02/02 03:12:09;;;;;;;1.25;0.95;;;4.80;99.90;;;;;;4951416;29;20205;-66
2023/02/02 03:14:37;;;;;;;2.28;1.05;;;4.80;99.90;;;;;;4951937;29;20213;-66
2023/02/02 03:17:03;;;;;;;1.45;1.05;;;4.80;99.90;;;;;;4951494;29;20719;-66
2023/02/02 03:19:31;;;;;;;3.58;1.10;;;4.80;99.90;;;;;;4950729;29;20201;-67
2023/02/02 03:21:58;;;;;;;1.33;1.00;;;4.90;99.90;;;;;;4954320;28;20205;-67
2023/02/02 03:24:25;;;;;;;0.90;0.80;;;4.80;99.90;;;;;;4955350;29;20207;-67
2023/02/02 03:26:52;;;;;;;2.17;0.90;;;4.80;99.90;;;;;;4955133;29;20224;-66
2023/02/02 03:29:19;;;;;;;2.42;0.90;;;4.80;99.90;;;;;;4954409;29;20204;-67
2023/02/02 03:31:46;;;;;;;1.00;0.90;;;4.90;99.90;;;;;;4954866;29;20218;-67
2023/02/02 03:34:13;;;;;;;2.35;1.10;;;4.80;99.90;;;;;;4955096;29;20212;-67
2023/02/02 03:36:41;;;;;;;1.88;1.00;;;4.90;99.90;;;;;;4954890;29;20224;-66
2023/02/02 03:39:08;;;;;;;1.20;1.00;;;4.90;99.90;;;;;;4954443;29;20706;-67
2023/02/02 03:41:34;;;;;;;1.38;1.23;;;4.90;99.90;;;;;;4954837;29;20227;-66
2023/02/02 03:44:01;;;;;;;1.92;1.00;;;4.80;99.90;;;;;;4954401;29;20211;-66
2023/02/02 03:46:28;;;;;;;1.35;1.10;;;4.80;99.90;;;;;;4954711;29;20247;-66
2023/02/02 03:48:54;;;;;;;1.30;1.13;;;4.80;99.90;;;;;;4954253;29;20288;-67
2023/02/02 03:51:21;;;;;;;1.20;1.10;;;4.80;99.90;;;;;;4954585;29;20231;-66
2023/02/02 03:53:49;;;;;;;1.45;0.90;;;4.80;99.90;;;;;;4954568;29;20264;-67
2023/02/02 03:56:18;;;;;;;4.35;1.33;;;4.80;99.90;;;;;;4954093;29;20232;-66
2023/02/02 03:58:46;;;;;;;1.90;1.35;;;4.80;99.90;;;;;;4954082;29;20219;-67
2023/02/02 04:01:14;;;;;;;2.65;1.30;;;4.80;99.90;;;;;;4954647;29;20201;-67
2023/02/02 04:03:41;;;;;;;3.22;1.00;;;4.80;99.90;;;;;;4954359;29;20913;-66
2023/02/02 04:06:08;;;;;;;1.52;1.10;;;4.80;99.90;;;;;;4954312;29;20243;-67
2023/02/02 04:08:35;;;;;;;4.45;1.55;;;4.90;99.90;;;;;;4953684;29;20216;-67
2023/02/02 04:11:03;;;;;;;1.48;1.10;;;4.80;99.90;;;;;;4954095;29;20227;-67
2023/02/02 04:13:29;;;;;;;1.02;0.93;;;4.80;99.90;;;;;;4954504;29;20596;-67
2023/02/02 04:15:58;;;;;;;1.42;1.20;;;4.80;99.90;;;;;;4954015;29;20715;-67
2023/02/02 04:18:24;;;;;;;2.65;1.17;;;4.90;99.90;;;;;;4953911;29;20326;-67
2023/02/02 04:20:57;;;;;;;2.20;1.08;;;4.90;99.90;;;;;;4953471;29;20224;-66
2023/02/02 04:23:23;;;;;;;1.10;0.98;;;4.90;99.90;;;;;;4954489;29;20630;-66
2023/02/02 04:25:51;;;;;;;0.85;0.80;;;4.90;99.90;;;;;;4954358;29;20228;-66
2023/02/02 04:28:19;;;;;;;1.20;0.90;;;4.90;99.90;;;;;;4952852;29;20200;-66
2023/02/02 04:30:45;;;;;;;1.83;1.20;;;4.90;99.90;;;;;;4954002;29;20279;-66
2023/02/02 04:33:12;;;;;;;1.10;1.00;;;5.00;99.90;;;;;;4952023;28;20215;-66
2023/02/02 04:35:39;;;;;;;1.20;0.90;;;5.00;99.90;;;;;;4952861;29;20231;-66
2023/02/02 04:38:05;;;;;;;3.60;1.15;;;5.00;99.90;;;;;;4952913;29;20200;-66
2023/02/02 04:40:32;;;;;;;2.85;1.10;;;5.00;99.90;;;;;;4952297;29;20686;-66
2023/02/02 04:42:59;;;;;;;1.27;1.00;;;5.00;99.90;;;;;;4953728;29;20199;-66
2023/02/02 04:45:27;;;;;;;1.25;0.93;;;5.00;99.90;;;;;;4952296;29;20220;-66
2023/02/02 04:47:54;;;;;;;1.42;1.02;;;5.00;99.90;;;;;;4953322;29;20562;-64
2023/02/02 04:50:21;;;;;;;2.72;1.45;;;5.00;99.90;;;;;;4952974;29;20623;-66
2023/02/02 04:52:48;;;;;;;3.10;1.10;;;5.00;99.90;;;;;;4954071;29;20197;-64
2023/02/02 04:55:15;;;;;;;2.05;1.45;;;5.00;99.90;;;;;;4952859;29;20196;-65
2023/02/02 04:57:41;;;;;;;2.17;1.00;;;5.00;99.90;;;;;;4950838;29;20208;-65
2023/02/02 05:00:10;;;;;;;1.73;1.08;;;5.00;99.90;;;;;;4951219;29;20203;-66
2023/02/02 05:02:40;;;;;;;1.85;1.08;;;5.00;99.90;;;;;;4951180;29;20646;-66
2023/02/02 05:05:09;;;;;;;1.83;1.13;;;5.00;99.90;;;;;;4950729;29;20208;-66
2023/02/02 05:07:36;;;;;;;1.05;0.95;;;5.00;99.90;;;;;;4952042;29;20205;-67
2023/02/02 05:10:03;;;;;;;1.20;1.05;;;5.00;99.90;;;;;;4949724;29;20228;-67
2023/02/02 05:12:30;;;;;;;2.33;1.58;;;5.00;99.90;;;;;;4951674;29;20676;-66
2023/02/02 05:14:59;;;;;;;1.50;1.17;;;5.00;99.90;;;;;;4952941;29;20196;-65
2023/02/02 05:17:26;;;;;;;6.20;1.50;;;5.00;99.90;;;;;;4953302;29;20208;-66
2023/02/02 05:19:55;;;;;;;2.75;1.45;;;5.00;99.90;;;;;;4953011;29;20208;-65
2023/02/02 05:22:22;;;;;;;3.00;1.27;;;5.00;99.90;;;;;;4952462;29;20459;-65
2023/02/02 05:24:48;;;;;;;2.53;1.48;;;5.00;99.90;;;;;;4952927;29;20260;-65
2023/02/02 05:27:15;;;;;;;1.73;0.95;;;5.00;99.90;;;;;;4951445;29;20228;-65
2023/02/02 05:29:42;;;;;;;3.17;1.75;;;5.00;99.90;;;;;;4951546;29;20296;-66
2023/02/02 05:32:09;;;;;;;1.58;1.25;;;5.10;99.90;;;;;;4950346;29;20215;-66
2023/02/02 05:34:35;;;;;;;1.55;1.17;;;5.10;99.90;;;;;;4949896;29;20219;-65
2023/02/02 05:37:03;;;;;;;4.78;1.52;;;5.10;99.90;;;;;;4950005;29;20231;-66
2023/02/02 05:39:30;;;;;;;3.60;1.20;;;5.10;99.90;;;;;;4949951;29;20501;-66
2023/02/02 05:41:57;;;;;;;2.88;1.27;;;5.10;99.90;;;;;;4949593;29;20589;-65
2023/02/02 05:44:23;;;;;;;1.92;1.38;;;5.10;99.90;;;;;;4949888;28;20211;-66
2023/02/02 05:46:50;;;;;;;1.00;0.90;;;5.20;99.90;;;;;;4952000;29;20232;-66
2023/02/02 05:49:17;;;;;;;2.35;1.40;;;5.20;99.90;;;;;;4951991;29;20204;-66
2023/02/02 05:51:47;;;;;;;2.67;1.23;;;5.20;99.90;;;;;;4952729;29;20224;-66
2023/02/02 05:54:19;;;;;;;3.17;1.00;;;5.20;99.90;;;;;;4952314;29;20210;-66
2023/02/02 05:56:46;;;;;;;4.13;1.23;;;5.10;99.90;;;;;;4952395;29;20252;-66
2023/02/02 05:59:12;;;;;;;1.48;1.15;;;5.10;99.90;;;;;;4951702;29;20220;-66
2023/02/02 06:01:39;;;;;;;1.27;1.17;;;5.20;99.90;;;;;;4952484;29;20204;-66
2023/02/02 06:04:06;;;;;;;1.80;1.40;;;5.20;99.90;;;;;;4952618;29;20835;-66
2023/02/02 06:06:34;;;;;;;1.05;0.95;;;5.20;99.90;;;;;;4952232;29;20220;-66
2023/02/02 06:09:01;;;;;;;1.38;0.90;;;5.20;99.90;;;;;;4952423;29;20211;-66
2023/02/02 06:11:29;;;;;;;5.57;1.70;;;5.20;99.90;;;;;;4952410;29;20633;-66
2023/02/02 06:13:56;;;;;;;2.60;1.40;;;5.20;99.90;;;;;;4952504;29;20207;-66
2023/02/02 06:16:23;;;;;;;2.55;1.33;;;5.20;99.90;;;;;;4952785;29;20231;-65
2023/02/02 06:18:50;;;;;;;2.40;1.40;;;5.20;99.90;;;;;;4952223;29;20204;-65
2023/02/02 06:21:18;;;;;;;2.88;1.25;;;5.20;99.90;;;;;;4952701;29;20205;-65
2023/02/02 06:23:45;;;;;;;3.13;1.35;;;5.20;99.90;;;;;;4952347;29;20212;-67
2023/02/02 06:26:12;;;;;;;5.15;1.88;;;5.10;99.90;;;;;;4952555;29;20224;-64
2023/02/02 06:28:40;;;;;;;1.23;1.13;;;5.20;99.90;;;;;;4952360;29;20211;-67
2023/02/02 06:31:08;;;;;;;4.45;1.52;;;5.20;99.90;;;;;;4952686;29;20228;-67
2023/02/02 06:33:34;;;;;;;1.63;1.20;;;5.20;99.90;;;;;;4952636;29;20300;-65
2023/02/02 06:36:02;;;;;;;4.72;1.45;;;5.10;99.90;;;;;;4951914;29;20651;-65
2023/02/02 06:38:28;;;;;;;4.53;1.88;;;5.10;99.90;;;;;;4952064;29;20208;-66
2023/02/02 06:40:55;;;;;;;4.43;1.42;;;5.10;99.90;;;;;;4952329;29;20208;-66
2023/02/02 06:43:22;;;;;;;2.00;1.25;;;5.10;99.90;;;;;;4952529;29;20231;-67
2023/02/02 06:45:50;;;;;;;3.63;1.40;;;5.10;99.90;;;;;;4952405;29;20231;-66
2023/02/02 06:48:16;;;;;;;5.15;1.65;;;5.10;99.90;;;;;;4952186;29;20204;-66
2023/02/02 06:50:43;;;;;;;1.30;1.10;;;5.10;99.90;;;;;;4952182;29;20230;-65
2023/02/02 06:53:10;;;;;;;1.23;1.05;;;5.10;99.90;;;;;;4952155;29;20219;-66
2023/02/02 06:55:36;;;;;;;2.40;1.20;;;5.10;99.90;;;;;;4953083;28;20220;-66
2023/02/02 06:58:03;;;;;;;3.13;1.52;;;5.10;99.90;;;;;;4956200;29;20580;-65
2023/02/02 07:00:30;;;;;;;3.42;1.35;;;5.10;99.90;;;;;;4955591;29;20235;-65
2023/02/02 07:02:58;;;;;;;2.45;1.40;;;5.20;99.90;;;;;;4953059;29;20261;-66
2023/02/02 07:05:28;;;;;;;2.20;1.15;;;5.20;99.90;;;;;;4937091;29;20225;-66
2023/02/02 07:07:55;;;;;;;1.52;0.80;;;5.30;99.90;;;;;;4936664;29;20205;-68
2023/02/02 07:10:22;;;;;;;1.38;0.90;;;5.40;99.90;;;;;;4936521;29;20205;-68
2023/02/02 07:12:48;;;;;;;3.35;1.65;;;5.50;99.90;;;;;;4936720;29;20653;-66
2023/02/02 07:15:15;;;;;;;1.02;0.93;;;5.50;99.90;;;;;;4936284;29;20219;-65
2023/02/02 07:17:42;;;;;;;2.55;1.48;;;5.50;99.90;;;;;;4936460;29;20205;-66
2023/02/02 07:20:11;;;;;;;1.55;1.23;;;5.40;99.90;;;;;;4936139;29;20209;-65
2023/02/02 07:22:39;;;;;;;2.70;1.20;;;5.30;99.90;;;;;;4936534;29;20197;-65
2023/02/02 07:25:06;;;;;;;1.42;1.20;;;5.30;99.90;;;;;;4936483;29;20241;-66
2023/02/02 07:27:33;;;;;;;2.03;1.45;;;5.20;99.90;;;;;;4936243;29;20688;-65
2023/02/02 07:30:00;;;;;;;1.85;1.10;;;5.20;99.90;;;;;;4935677;29;20209;-65
2023/02/02 07:32:27;;;;;;;1.40;1.10;;;5.20;99.90;;;;;;4936371;29;20233;-66
2023/02/02 07:34:53;;;;;;;2.28;1.38;;;5.20;99.90;;;;;;4936266;29;20205;-66
2023/02/02 07:37:22;;;;;;;2.15;1.20;;;5.20;99.90;;;;;;4936440;29;20255;-65
2023/02/02 07:39:48;;;;;;;3.25;1.50;;;5.10;99.90;;;;;;4935467;29;20209;-64
2023/02/02 07:42:15;;;;;;;2.13;1.20;;;5.20;99.90;;;;;;4936142;29;20208;-66
2023/02/02 07:44:41;;;;;;;2.10;1.17;;;5.20;99.90;;;;;;4936588;29;20205;-66
2023/02/02 07:47:08;;;;;;;1.63;1.20;;;5.20;99.90;;;;;;4935888;29;20629;-67
2023/02/02 07:49:35;;;;;;;2.65;1.42;;;5.20;99.90;;;;;;4935872;29;20217;-67
2023/02/02 07:52:02;;;;;;;2.15;1.50;;;5.20;99.90;;;;;;4935360;29;20221;-65
2023/02/02 07:54:30;;;;;;;1.60;1.30;;;5.30;99.90;;;;;;4936104;29;20326;-67
2023/02/02 07:56:59;;;;;;;2.25;1.50;;;5.20;99.90;;;;;;4935733;29;20263;-66
2023/02/02 07:59:26;;;;;;;4.72;1.50;;;5.30;99.90;;;;;;4935749;29;20208;-67
2023/02/02 08:01:53;;;;;;;1.55;1.45;;;5.20;99.90;;;;;;4935736;29;20677;-66
2023/02/02 08:04:19;;;;;;;1.45;1.35;;;5.20;99.90;;;;;;4936541;29;20212;-67
2023/02/02 08:06:47;;;;;;;1.90;1.27;;;5.30;99.90;;;;;;4954216;28;20225;-67
2023/02/02 08:09:13;;;;;;;1.40;1.17;;;5.30;99.90;;;;;;4952125;29;20619;-67
2023/02/02 08:11:42;;;;;;;6.05;1.90;;;5.40;99.90;;;;;;4955002;29;20234;-66
2023/02/02 08:14:12;;;;;;;3.08;1.60;;;5.40;99.90;;;;;;4954550;29;20215;-67
2023/02/02 08:16:39;;;;;;;1.50;1.38;;;5.50;99.90;;;;;;4954239;29;20230;-67
2023/02/02 08:19:05;;;;;;;7.15;1.90;;;5.50;99.90;;;;;;4954036;29;20208;-66
2023/02/02 08:21:33;;;;;;;1.30;1.20;;;5.50;99.90;;;;;;4954778;29;20247;-67
2023/02/02 08:24:00;;;;;;;2.20;2.00;;;5.50;99.90;;;;;;4954114;29;20204;-66
2023/02/02 08:26:29;;;;;;;1.52;1.38;;;5.60;99.90;;;;;;4955095;29;20319;-67
2023/02/02 08:28:59;;;;;;;2.70;1.52;;;5.60;99.90;;;;;;5014576;23;20232;-66
2023/02/02 08:31:28;;;;;;;2.58;1.42;;;5.60;99.90;;;;;;4954198;29;20782;-66
2023/02/02 08:33:57;;;;;;;2.67;1.48;;;5.60;99.90;;;;;;4954571;29;20212;-66
2023/02/02 08:36:25;;;;;;;2.30;1.42;;;5.60;99.90;;;;;;4954531;29;20231;-66
2023/02/02 08:38:52;;;;;;;5.53;1.75;;;5.60;99.90;;;;;;4953889;29;20220;-66
2023/02/02 08:41:21;;;;;;;5.60;2.00;;;5.70;99.90;;;;;;4954176;29;20223;-66
2023/02/02 08:43:48;;;;;;;3.25;1.25;;;5.70;99.90;;;;;;4954371;29;20653;-66
2023/02/02 08:46:18;;;;;;;3.35;1.95;;;5.80;99.90;;;;;;4953873;29;20224;-66
2023/02/02 08:48:45;;;;;;;5.07;1.65;;;5.80;99.90;;;;;;4953913;29;20216;-66
2023/02/02 08:51:14;;;;;;;2.95;1.40;;;5.80;99.90;;;;;;4954088;29;20572;-66
2023/02/02 08:53:41;;;;;;;1.77;1.05;;;5.80;99.90;;;;;;4953317;29;20204;-66
2023/02/02 08:56:11;;;;;;;1.40;1.20;;;5.80;99.90;;;;;;4953851;29;20224;-66
2023/02/02 08:58:38;;;;;;;4.53;1.88;;;5.80;99.90;;;;;;4952542;29;20506;-67
2023/02/02 09:01:06;;;;;;;1.20;1.10;;;5.80;99.90;;;;;;4953425;29;20216;-66
2023/02/02 09:03:35;;;;;;;2.40;1.60;;;5.80;99.90;;;;;;4953903;29;20200;-66
2023/02/02 09:06:05;;;;;;;2.17;1.65;;;5.80;99.90;;;;;;4953120;29;20235;-66
2023/02/02 09:08:33;;;;;;;3.17;1.48;;;5.80;99.90;;;;;;4953597;29;20690;-65
2023/02/02 09:11:04;;;;;;;2.35;1.80;;;5.80;99.90;;;;;;4953567;29;20287;-66
2023/02/02 09:13:31;;;;;;;3.05;1.55;;;5.80;99.90;;;;;;4953723;29;20224;-66
2023/02/02 09:16:00;;;;;;;2.00;1.40;;;5.80;99.90;;;;;;4953094;29;20224;-66
2023/02/02 09:18:26;;;;;;;2.85;1.80;;;5.80;99.90;;;;;;4952203;28;20680;-65
2023/02/02 09:20:55;;;;;;;3.65;1.85;;;5.90;99.90;;;;;;4953418;29;20216;-66
2023/02/02 09:23:21;;;;;;;3.72;1.95;;;5.90;99.90;;;;;;4952976;29;20580;-66
2023/02/02 09:25:48;;;;;;;3.60;1.90;;;5.90;99.90;;;;;;4953464;29;20224;-66
2023/02/02 09:28:15;;;;;;;4.60;1.80;;;5.90;99.90;;;;;;4952996;29;20224;-66
2023/02/02 09:30:42;;;;;;;6.30;2.00;;;6.00;99.90;;;;;;4952794;29;20219;-66
2023/02/02 09:33:09;;;;;;;2.20;1.30;;;6.00;99.90;;;;;;4953042;29;20232;-66
2023/02/02 09:35:36;;;;;;;9.20;1.98;;;6.10;99.90;;;;;;4953455;29;20220;-66
2023/02/02 09:38:04;;;;;;;8.43;2.20;;;6.10;99.90;;;;;;4952700;29;20211;-66
2023/02/02 09:40:32;;;;;;;2.47;1.90;;;6.20;99.90;;;;;;4952825;29;20643;-66
2023/02/02 09:43:06;;;;;;;4.82;1.60;;;6.20;99.90;;;;;;4952212;29;20203;-66
2023/02/02 09:45:41;;;;;;;4.60;2.00;;;6.30;99.90;;;;;;4952929;29;20231;-66
2023/02/02 09:48:23;;;;;;;5.10;1.58;;;6.30;99.90;;;;;;4952826;29;20218;-66
2023/02/02 09:50:54;;;;;;;5.57;2.13;;;6.30;99.90;;;;;;4952243;29;20694;-66
2023/02/02 09:53:27;;;;;;;5.50;2.17;;;6.30;99.90;;;;;;4952657;29;20235;-66
2023/02/02 09:55:58;;;;;;;3.53;1.80;;;6.30;99.90;;;;;;4952302;29;20235;-66
2023/02/02 09:58:28;;;;;;;1.50;1.20;;;6.30;99.90;;;;;;4952693;29;20626;-66
2023/02/02 10:01:00;;;;;;;2.60;1.52;;;6.20;99.90;;;;;;4950021;29;20220;-65
2023/02/02 10:03:33;;;;;;;1.88;1.58;;;6.20;99.90;;;;;;4952955;29;20575;-66
2023/02/02 10:06:06;;;;;;;2.72;1.30;;;6.20;99.90;;;;;;4952996;29;20240;-66
2023/02/02 10:08:39;;;;;;;2.30;1.98;;;6.20;99.90;;;;;;4952367;29;20200;-66
2023/02/02 10:11:27;;;;;;;1.80;1.40;;;6.20;99.90;;;;;;4952919;29;20221;-66
2023/02/02 10:13:56;;;;;;;4.25;2.03;;;6.10;99.90;;;;;;4950282;29;20197;-66
2023/02/02 10:16:24;;;;;;;8.32;1.95;;;6.10;99.90;;;;;;4952204;29;20708;-66
2023/02/02 10:18:56;;;;;;;4.35;1.95;;;6.10;99.90;;;;;;4951424;29;20204;-66
2023/02/02 10:21:29;;;;;;;2.30;1.60;;;6.10;99.90;;;;;;4952122;29;20204;-66
2023/02/02 10:23:57;;;;;;;1.58;1.48;;;6.20;99.90;;;;;;4952042;29;20583;-66
2023/02/02 10:26:34;;;;;;;2.17;1.55;;;6.20;99.90;;;;;;4952617;29;20258;-66
2023/02/02 10:29:08;;;;;;;3.97;1.90;;;6.20;99.90;;;;;;4949547;29;20220;-67
2023/02/02 10:31:44;;;;;;;1.83;1.52;;;6.20;99.90;;;;;;4951666;29;20243;-66
2023/02/02 10:34:24;;;;;;;6.07;1.80;;;6.20;99.90;;;;;;4942162;29;20209;-66
2023/02/02 10:37:02;;;;;;;5.60;1.88;;;6.20;99.90;;;;;;4933374;29;20224;-66
2023/02/02 10:39:45;;;;;;;1.40;1.30;;;6.30;99.90;;;;;;4940514;29;20215;-66
2023/02/02 10:42:23;;;;;;;2.38;1.73;;;6.30;99.90;;;;;;4951931;29;20204;-66
2023/02/02 10:44:54;;;;;;;2.35;1.48;;;6.30;99.90;;;;;;4950990;29;20692;-66
2023/02/02 10:47:25;;;;;;;1.60;1.45;;;6.40;99.90;;;;;;4950320;29;20712;-65
2023/02/02 10:50:03;;;;;;;1.77;1.35;;;6.30;99.90;;;;;;4949951;29;20239;-66
2023/02/02 10:52:33;;;;;;;1.55;1.20;;;6.30;99.90;;;;;;4951590;29;20228;-66
2023/02/02 10:55:11;;;;;;;1.25;1.13;;;6.20;99.90;;;;;;4951778;29;20209;-66
2023/02/02 10:57:52;;;;;;;1.65;1.48;;;6.20;99.90;;;;;;4951634;29;20332;-65
2023/02/02 11:00:28;;;;;;;2.95;1.50;;;6.10;99.90;;;;;;4948899;29;20200;-66
2023/02/02 11:02:55;;;;;;;2.10;1.30;;;6.00;99.90;;;;;;4952062;29;20255;-66
2023/02/02 11:08:19;;;;;;;4.07;1.50;;;6.00;99.90;;;;;;4951665;29;20207;-66
2023/02/02 11:10:49;;;;;;;2.50;1.50;;;5.90;99.90;;;;;;4951618;29;20223;-66
2023/02/02 11:13:25;;;;;;;2.72;1.25;;;5.80;99.90;;;;;;4951564;29;20239;-66
2023/02/02 11:16:11;;;;;;;1.77;1.50;;;5.90;99.90;;;;;;4951792;29;20627;-66
2023/02/02 11:18:38;;;;;;;5.88;1.92;;;5.90;99.90;;;;;;4951209;29;20212;-66
2023/02/02 11:21:17;;;;;;;1.92;1.27;;;5.90;99.90;;;;;;4950862;29;20601;-65
2023/02/02 11:23:52;;;;;;;2.45;1.58;;;5.90;99.90;;;;;;4951725;29;20212;-66
2023/02/02 11:26:20;;;;;;;1.90;1.27;;;5.90;99.90;;;;;;4951627;29;20707;-66
2023/02/02 11:28:49;;;;;;;8.50;1.80;;;5.90;99.90;;;;;;4951178;29;20615;-66
2023/02/02 11:31:34;;;;;;;2.58;1.67;;;5.90;99.90;;;;;;4951316;29;20283;-65
2023/02/02 11:34:19;;;;;;;3.17;1.77;;;6.00;99.90;;;;;;4951102;29;20657;-65
2023/02/02 11:37:00;;;;;;;1.98;1.50;;;6.00;99.90;;;;;;4951349;29;20224;-65
2023/02/02 11:39:27;;;;;;;4.32;1.85;;;6.10;99.90;;;;;;4951320;29;20204;-65
2023/02/02 11:42:01;;;;;;;1.40;1.30;;;6.20;99.90;;;;;;4952356;28;20208;-66
2023/02/02 11:44:31;;;;;;;2.15;1.80;;;6.20;99.90;;;;;;4955123;29;20204;-66
2023/02/02 11:46:58;;;;;;;5.72;1.50;;;6.20;99.90;;;;;;4954708;29;20771;-65
2023/02/02 11:49:25;;;;;;;2.67;1.77;;;6.10;99.90;;;;;;4954485;29;20208;-66
2023/02/02 11:52:03;;;;;;;3.92;1.73;;;6.20;99.90;;;;;;4954645;29;20211;-66
2023/02/02 11:54:32;;;;;;;3.47;2.05;;;6.10;99.90;;;;;;4955128;29;20703;-65
2023/02/02 11:57:02;;;;;;;5.00;2.10;;;6.10;99.90;;;;;;4954221;29;20224;-66
2023/02/02 11:59:32;;;;;;;4.38;1.73;;;6.10;99.90;;;;;;4953879;29;20216;-66
2023/02/02 12:02:24;;;;;;;2.30;1.80;;;6.10;99.90;;;;;;4953888;29;20672;-66
2023/02/02 12:04:53;;;;;;;4.10;1.80;;;6.10;99.90;;;;;;4954085;29;20373;-66
2023/02/02 12:07:26;;;;;;;2.67;1.60;;;6.00;99.90;;;;;;4954416;29;20766;-66
2023/02/02 12:09:56;;;;;;;2.35;1.25;;;6.00;99.90;;;;;;4953786;29;20207;-66
2023/02/02 12:12:38;;;;;;;2.85;1.65;;;6.10;99.90;;;;;;4953116;29;20231;-66
2023/02/02 12:15:14;;;;;;;1.48;1.27;;;6.10;99.90;;;;;;4954035;29;20215;-66
2023/02/02 12:17:44;;;;;;;4.05;1.83;;;6.10;99.90;;;;;;4954240;29;20204;-66
2023/02/02 12:20:26;;;;;;;2.65;1.45;;;6.20;99.90;;;;;;4953128;29;20247;-67
2023/02/02 12:23:30;;;;;;;3.05;1.65;;;6.10;99.90;;;;;;4953784;29;20204;-67
2023/02/02 12:26:18;;;;;;;6.85;1.75;;;6.10;99.90;;;;;;4894433;29;20230;-67
2023/02/02 12:29:02;;;;;;;2.22;1.23;;;6.10;99.90;;;;;;4893532;29;20210;-67
2023/02/02 12:31:37;;;;;;;2.85;1.25;;;6.10;99.90;;;;;;4935799;29;20212;-66
2023/02/02 12:34:10;;;;;;;1.52;1.42;;;6.20;99.90;;;;;;4953127;29;20234;-66
2023/02/02 12:36:49;;;;;;;3.72;1.63;;;6.20;99.90;;;;;;4953360;29;20239;-65
2023/02/02 12:39:34;;;;;;;3.00;1.52;;;6.20;99.90;;;;;;4953053;29;20212;-66
2023/02/02 12:42:36;;;;;;;2.60;1.20;;;6.20;99.90;;;;;;4952983;29;20303;-66
2023/02/02 12:45:42;;;;;;;1.90;1.42;;;6.10;99.90;;;;;;4953384;29;20211;-66
2023/02/02 12:48:31;;;;;;;2.35;1.75;;;6.10;99.90;;;;;;4952749;29;20209;-66
2023/02/02 12:51:08;;;;;;;6.85;2.08;;;6.00;99.90;;;;;;4952872;29;20551;-66
2023/02/02 12:53:54;;;;;;;3.90;1.33;;;6.00;99.90;;;;;;4952537;28;20266;-66
2023/02/02 12:56:27;;;;;;;1.38;1.27;;;6.00;99.90;;;;;;4953197;29;20597;-67
2023/02/02 12:59:00;;;;;;;2.90;1.35;;;6.00;99.90;;;;;;4952755;29;20201;-66
2023/02/02 13:01:52;;;;;;;1.98;1.20;;;6.00;99.90;;;;;;4953003;29;20201;-66
2023/02/02 13:04:36;;;;;;;1.58;1.10;;;6.00;99.90;;;;;;4952872;29;20204;-66
2023/02/02 13:07:20;;;;;;;1.80;1.23;;;6.00;99.90;;;;;;4953081;29;20593;-66
2023/02/02 13:09:52;;;;;;;9.50;1.38;;;6.00;99.90;;;;;;4952711;29;20583;-66
2023/02/02 13:12:22;;;;;;;2.95;1.38;;;5.90;99.90;;;;;;4952737;29;20231;-66
2023/02/02 13:14:53;;;;;;;6.63;1.50;;;5.90;99.90;;;;;;4952440;29;20204;-66
2023/02/02 13:17:25;;;;;;;3.22;1.30;;;5.90;99.90;;;;;;4953259;29;20639;-66
2023/02/02 13:19:54;;;;;;;1.65;1.25;;;5.80;99.90;;;;;;4952383;29;20208;-66
2023/02/02 13:22:26;;;;;;;1.60;1.27;;;5.70;99.90;;;;;;4953108;29;20208;-67
2023/02/02 13:24:57;;;;;;;1.30;1.10;;;5.70;99.90;;;;;;4952917;29;20215;-66
2023/02/02 13:27:25;;;;;;;10.15;2.88;;;5.70;99.90;;;;;;4952162;29;20771;-66
2023/02/02 13:29:55;;;;;;;1.40;1.30;;;5.60;99.90;;;;;;4952241;29;20216;-66
2023/02/02 13:32:30;;;;;;;1.73;1.20;;;5.70;99.90;;;;;;4952610;29;20208;-67